createdAt,value
2018-08-04T00:01:24.733Z,26.00
2018-08-04T00:03:53.111Z,26.00
2018-08-04T00:06:21.555Z,26.00
2018-08-04T00:08:49.634Z,26.00
2018-08-04T00:11:17.751Z,26.00
2018-08-04T00:13:45.825Z,26.00
2018-08-04T00:16:13.925Z,25.90
2018-08-04T00:18:41.994Z,25.90
2018-08-04T00:21:10.067Z,25.80
2018-08-04T00:23:38.126Z,25.90
2018-08-04T00:26:06.231Z,25.80
2018-08-04T00:28:34.299Z,25.90
2018-08-04T00:31:02.378Z,25.80
2018-08-04T00:33:30.446Z,25.80
2018-08-04T00:35:58.514Z,25.70
2018-08-04T00:38:26.591Z,25.70
2018-08-04T00:40:54.674Z,25.70
2018-08-04T00:43:22.731Z,25.70
2018-08-04T00:45:50.806Z,25.70
2018-08-04T00:48:18.871Z,25.70
2018-08-04T00:50:46.942Z,25.70
2018-08-04T00:53:15.016Z,25.80
2018-08-04T00:55:43.335Z,25.80
2018-08-04T00:58:11.395Z,25.90
2018-08-04T01:00:39.483Z,25.90
2018-08-04T01:03:07.571Z,25.90
2018-08-04T01:05:35.639Z,25.90
2018-08-04T01:08:03.731Z,25.80
2018-08-04T01:10:31.807Z,25.80
2018-08-04T01:12:59.878Z,25.70
2018-08-04T01:15:27.975Z,25.70
2018-08-04T01:17:56.039Z,25.70
2018-08-04T01:20:24.422Z,25.70
2018-08-04T01:22:52.491Z,25.60
2018-08-04T01:25:20.562Z,25.60
2018-08-04T01:27:48.630Z,25.60
2018-08-04T01:30:16.699Z,25.60
2018-08-04T01:35:12.646Z,25.60
2018-08-04T01:37:40.710Z,25.70
2018-08-04T01:40:08.782Z,25.70
2018-08-04T01:42:36.873Z,25.70
2018-08-04T01:45:04.958Z,25.80
2018-08-04T01:47:33.290Z,25.80
2018-08-04T01:50:08.746Z,25.70
2018-08-04T01:52:36.830Z,25.60
2018-08-04T01:55:05.238Z,25.60
2018-08-04T01:57:33.306Z,25.60
2018-08-04T02:00:01.363Z,25.70
2018-08-04T02:02:29.438Z,25.70
2018-08-04T02:04:57.774Z,25.80
2018-08-04T02:07:25.862Z,25.90
2018-08-04T02:09:53.965Z,25.90
2018-08-04T02:12:22.034Z,25.80
2018-08-04T02:14:50.099Z,25.80
2018-08-04T02:17:18.194Z,25.80
2018-08-04T02:19:46.571Z,25.90
2018-08-04T02:22:14.943Z,25.90
2018-08-04T02:24:43.172Z,25.90
2018-08-04T02:27:11.287Z,25.90
2018-08-04T02:29:39.422Z,25.90
2018-08-04T02:32:07.527Z,25.90
2018-08-04T02:34:35.612Z,25.90
2018-08-04T02:37:03.687Z,25.90
2018-08-04T02:39:31.969Z,26.00
2018-08-04T02:42:00.040Z,26.00
2018-08-04T02:44:28.138Z,26.10
2018-08-04T02:46:56.203Z,26.00
2018-08-04T02:49:24.260Z,26.00
2018-08-04T02:51:52.319Z,26.10
2018-08-04T02:54:20.399Z,26.10
2018-08-04T02:56:48.471Z,26.10
2018-08-04T02:59:16.547Z,26.00
2018-08-04T03:01:44.901Z,26.00
2018-08-04T03:04:12.959Z,26.00
2018-08-04T03:06:41.029Z,25.90
2018-08-04T03:09:10.764Z,25.90
2018-08-04T03:11:38.850Z,25.90
2018-08-04T03:14:06.914Z,26.00
2018-08-04T03:19:02.962Z,26.10
2018-08-04T03:21:31.754Z,26.10
2018-08-04T03:23:59.812Z,26.00
2018-08-04T03:26:27.999Z,25.90
2018-08-04T03:31:24.134Z,25.60
2018-08-04T03:33:52.214Z,25.60
2018-08-04T03:36:20.570Z,25.60
2018-08-04T03:38:48.630Z,25.60
2018-08-04T03:41:16.697Z,25.50
2018-08-04T03:43:44.770Z,25.50
2018-08-04T03:46:12.843Z,25.40
2018-08-04T03:48:40.898Z,25.40
2018-08-04T03:51:08.970Z,25.40
2018-08-04T03:53:37.030Z,25.40
2018-08-04T03:56:05.104Z,25.40
2018-08-04T03:58:33.170Z,25.40
2018-08-04T04:01:01.230Z,25.40
2018-08-04T04:03:29.313Z,25.30
2018-08-04T04:05:57.379Z,25.30
2018-08-04T04:08:25.446Z,25.30
2018-08-04T04:10:53.502Z,25.30
2018-08-04T04:13:21.567Z,25.30
2018-08-04T04:15:49.638Z,25.30
2018-08-04T04:18:17.714Z,25.30
2018-08-04T04:20:45.766Z,25.30
2018-08-04T04:23:13.848Z,25.40
2018-08-04T04:25:41.902Z,25.30
2018-08-04T04:28:09.971Z,25.30
2018-08-04T04:30:38.039Z,25.30
2018-08-04T04:35:34.511Z,25.40
2018-08-04T04:38:02.601Z,25.40
2018-08-04T04:40:30.678Z,25.40
2018-08-04T04:42:58.762Z,25.50
2018-08-04T04:45:27.106Z,25.50
2018-08-04T04:47:55.190Z,25.50
2018-08-04T04:50:23.263Z,25.50
2018-08-04T04:52:51.338Z,25.50
2018-08-04T04:55:19.422Z,25.40
2018-08-04T04:57:47.475Z,25.50
2018-08-04T05:00:15.666Z,25.60
2018-08-04T05:02:43.846Z,25.60
2018-08-04T05:05:11.906Z,25.60
2018-08-04T05:07:40.198Z,25.50
2018-08-04T05:10:08.559Z,25.40
2018-08-04T05:12:36.946Z,25.30
2018-08-04T05:15:05.658Z,25.30
2018-08-04T05:17:33.750Z,25.30
2018-08-04T05:20:01.910Z,25.30
2018-08-04T05:22:29.972Z,25.30
2018-08-04T05:24:58.035Z,25.30
2018-08-04T05:27:26.122Z,25.30
2018-08-04T05:29:54.197Z,25.40
2018-08-04T05:32:22.458Z,25.50
2018-08-04T05:34:50.759Z,25.60
2018-08-04T05:37:19.270Z,25.60
2018-08-04T05:39:47.646Z,25.60
2018-08-04T05:42:15.715Z,25.60
2018-08-04T05:44:43.782Z,25.60
2018-08-04T05:47:11.842Z,25.60
2018-08-04T05:49:39.942Z,25.50
2018-08-04T05:52:08.011Z,25.50
2018-08-04T05:54:36.117Z,25.50
2018-08-04T05:57:04.478Z,25.50
2018-08-04T05:59:32.560Z,25.50
2018-08-04T06:04:28.583Z,25.30
2018-08-04T06:06:56.682Z,25.20
2018-08-04T06:09:24.751Z,25.10
2018-08-04T06:11:52.813Z,25.00
2018-08-04T06:14:20.890Z,24.90
2018-08-04T06:16:49.031Z,24.90
2018-08-04T06:19:17.113Z,24.90
2018-08-04T06:21:45.179Z,24.90
2018-08-04T06:24:13.242Z,24.90
2018-08-04T06:26:41.298Z,24.90
2018-08-04T06:29:09.394Z,24.90
2018-08-04T06:31:37.453Z,25.00
2018-08-04T06:34:05.890Z,25.00
2018-08-04T06:36:33.942Z,25.10
2018-08-04T06:39:02.019Z,25.10
2018-08-04T06:41:30.072Z,25.10
2018-08-04T06:43:58.135Z,25.00
2018-08-04T06:46:26.218Z,24.90
2018-08-04T06:48:54.533Z,25.00
2018-08-04T06:51:22.606Z,25.00
2018-08-04T06:53:50.690Z,25.00
2018-08-04T06:56:18.769Z,25.00
2018-08-04T06:58:46.849Z,25.00
2018-08-04T07:01:14.953Z,24.90
2018-08-04T07:03:43.038Z,25.00
2018-08-04T07:06:11.103Z,25.00
2018-08-04T07:08:39.226Z,25.10
2018-08-04T07:11:07.297Z,25.10
2018-08-04T07:13:35.371Z,25.10
2018-08-04T07:16:03.433Z,25.20
2018-08-04T07:18:31.520Z,25.30
2018-08-04T07:20:59.597Z,25.40
2018-08-04T07:25:55.898Z,25.50
2018-08-04T07:28:23.967Z,25.60
2018-08-04T07:30:52.054Z,25.70
2018-08-04T07:33:20.125Z,25.80
2018-08-04T07:35:48.498Z,25.90
2018-08-04T07:38:16.586Z,26.10
2018-08-04T07:40:44.655Z,26.10
2018-08-04T07:43:12.711Z,26.30
2018-08-04T07:45:40.782Z,26.30
2018-08-04T07:48:08.881Z,26.40
2018-08-04T07:50:36.951Z,26.40
2018-08-04T07:53:05.277Z,26.50
2018-08-04T07:55:33.362Z,26.50
2018-08-04T07:58:01.425Z,26.60
2018-08-04T08:00:29.487Z,26.70
2018-08-04T08:02:57.557Z,26.70
2018-08-04T08:05:25.622Z,26.70
2018-08-04T08:07:53.674Z,26.70
2018-08-04T08:10:21.768Z,26.70
2018-08-04T08:12:49.837Z,26.80
2018-08-04T08:15:17.918Z,26.80
2018-08-04T08:17:46.065Z,26.80
2018-08-04T08:20:14.227Z,26.80
2018-08-04T08:22:43.421Z,26.80
2018-08-04T08:25:11.495Z,26.90
2018-08-04T08:27:39.869Z,26.90
2018-08-04T08:30:11.187Z,26.90
2018-08-04T08:32:39.362Z,26.90
2018-08-04T08:35:08.035Z,27.00
2018-08-04T08:37:36.092Z,27.00
2018-08-04T08:40:04.223Z,27.00
2018-08-04T08:42:32.302Z,27.00
2018-08-04T08:45:00.627Z,27.00
2018-08-04T08:47:28.702Z,27.00
2018-08-04T08:49:56.777Z,27.00
2018-08-04T08:52:24.853Z,27.10
2018-08-04T08:54:52.915Z,27.10
2018-08-04T08:57:21.295Z,27.10
2018-08-04T08:59:49.382Z,27.10
2018-08-04T09:02:17.465Z,27.10
2018-08-04T09:04:45.555Z,27.10
2018-08-04T09:07:13.635Z,27.10
2018-08-04T09:09:41.719Z,27.20
2018-08-04T09:12:09.786Z,27.20
2018-08-04T09:14:37.846Z,27.20
2018-08-04T09:17:06.199Z,27.20
2018-08-04T09:19:34.277Z,27.20
2018-08-04T09:22:02.368Z,27.20
2018-08-04T09:24:30.427Z,27.20
2018-08-04T09:26:58.499Z,27.20
2018-08-04T09:29:26.837Z,27.20
2018-08-04T09:31:54.913Z,27.20
2018-08-04T09:34:22.986Z,27.20
2018-08-04T09:36:51.056Z,27.20
2018-08-04T09:39:19.134Z,27.20
2018-08-04T09:44:15.146Z,27.20
2018-08-04T09:46:43.210Z,27.30
2018-08-04T09:49:11.278Z,27.30
2018-08-04T09:51:39.347Z,27.30
2018-08-04T09:54:07.690Z,27.30
2018-08-04T09:56:35.771Z,27.30
2018-08-04T09:59:03.831Z,27.30
2018-08-04T10:01:37.875Z,27.30
2018-08-04T10:04:06.238Z,27.30
2018-08-04T10:06:34.443Z,27.30
2018-08-04T10:09:02.931Z,27.30
2018-08-04T10:13:58.930Z,27.30
2018-08-04T10:16:27.035Z,27.30
2018-08-04T10:18:55.095Z,27.30
2018-08-04T10:21:23.161Z,27.30
2018-08-04T10:23:51.634Z,27.40
2018-08-04T10:26:19.726Z,27.40
2018-08-04T10:28:48.103Z,27.40
2018-08-04T10:31:17.003Z,27.30
2018-08-04T10:33:45.067Z,27.40
2018-08-04T10:36:13.439Z,27.30
2018-08-04T10:38:41.814Z,27.30
2018-08-04T10:41:09.856Z,27.40
2018-08-04T10:43:37.911Z,27.30
2018-08-04T10:46:05.987Z,27.30
2018-08-04T10:48:34.042Z,27.40
2018-08-04T10:51:02.115Z,27.40
2018-08-04T10:53:30.178Z,27.40
2018-08-04T10:55:58.249Z,27.40
2018-08-04T10:58:26.334Z,27.40
2018-08-04T11:00:54.634Z,27.40
2018-08-04T11:03:22.753Z,27.40
2018-08-04T11:05:50.766Z,27.40
2018-08-04T11:08:18.831Z,27.40
2018-08-04T11:10:46.901Z,27.40
2018-08-04T11:13:15.230Z,27.40
2018-08-04T11:15:43.318Z,27.40
2018-08-04T11:18:11.395Z,27.40
2018-08-04T11:20:39.447Z,27.50
2018-08-04T11:23:07.534Z,27.50
2018-08-04T11:25:35.614Z,27.50
2018-08-04T11:28:03.679Z,27.50
2018-08-04T11:30:31.735Z,27.50
2018-08-04T11:32:59.894Z,27.60
2018-08-04T11:35:27.992Z,27.60
2018-08-04T11:37:56.049Z,27.60
2018-08-04T11:40:24.107Z,27.60
2018-08-04T11:42:52.198Z,27.60
2018-08-04T11:45:20.258Z,27.60
2018-08-04T11:47:48.442Z,27.60
2018-08-04T11:50:16.495Z,27.60
2018-08-04T11:52:44.570Z,27.70
2018-08-04T11:55:12.647Z,27.70
2018-08-04T11:57:40.707Z,27.70
2018-08-04T12:00:08.775Z,27.70
2018-08-04T12:02:36.847Z,27.70
2018-08-04T12:05:04.919Z,27.80
2018-08-04T12:07:33.002Z,27.80
2018-08-04T12:10:01.354Z,27.80
2018-08-04T12:12:29.604Z,27.80
2018-08-04T12:17:25.944Z,27.80
2018-08-04T12:19:54.035Z,27.80
2018-08-04T12:22:22.287Z,27.80
2018-08-04T12:24:50.658Z,27.80
2018-08-04T12:27:18.723Z,27.80
2018-08-04T12:29:46.778Z,27.80
2018-08-04T12:32:14.862Z,27.80
2018-08-04T12:34:43.223Z,27.80
2018-08-04T12:37:11.286Z,27.80
2018-08-04T12:39:39.358Z,27.80
2018-08-04T12:42:07.740Z,27.80
2018-08-04T12:44:35.799Z,27.90
2018-08-04T12:47:03.878Z,27.80
2018-08-04T12:49:32.035Z,27.80
2018-08-04T12:52:00.107Z,27.90
2018-08-04T12:54:28.760Z,27.90
2018-08-04T12:56:56.809Z,27.90
2018-08-04T12:59:25.099Z,27.90
2018-08-04T13:01:53.170Z,27.80
2018-08-04T13:04:21.242Z,27.90
2018-08-04T13:06:49.314Z,27.90
2018-08-04T13:09:17.401Z,27.90
2018-08-04T13:11:45.463Z,27.90
2018-08-04T13:14:13.573Z,27.90
2018-08-04T13:16:41.646Z,27.90
2018-08-04T13:19:09.710Z,27.90
2018-08-04T13:21:38.055Z,27.90
2018-08-04T13:24:06.275Z,27.90
2018-08-04T13:26:34.358Z,27.90
2018-08-04T13:29:02.427Z,27.90
2018-08-04T13:31:30.494Z,27.90
2018-08-04T13:33:58.582Z,27.90
2018-08-04T13:36:26.642Z,27.90
2018-08-04T13:38:54.724Z,27.90
2018-08-04T13:41:22.793Z,27.90
2018-08-04T13:43:50.862Z,27.90
2018-08-04T13:46:19.232Z,27.90
2018-08-04T13:48:47.611Z,27.90
2018-08-04T13:51:15.675Z,28.00
2018-08-04T13:53:43.762Z,28.00
2018-08-04T13:56:11.838Z,28.00
2018-08-04T13:58:39.915Z,28.00
2018-08-04T14:01:07.979Z,28.00
2018-08-04T14:03:36.062Z,28.00
2018-08-04T14:06:04.119Z,28.00
2018-08-04T14:11:00.123Z,28.00
2018-08-04T14:13:28.199Z,28.00
2018-08-04T14:15:56.262Z,28.00
2018-08-04T14:18:24.347Z,28.00
2018-08-04T14:20:52.717Z,28.00
2018-08-04T14:23:20.788Z,28.00
2018-08-04T14:25:48.902Z,28.00
2018-08-04T14:28:17.345Z,28.00
2018-08-04T14:30:45.350Z,28.00
2018-08-04T14:33:13.694Z,28.00
2018-08-04T14:35:42.067Z,28.00
2018-08-04T14:38:10.162Z,28.00
2018-08-04T14:40:38.332Z,28.00
2018-08-04T14:43:06.759Z,28.00
2018-08-04T14:45:34.820Z,28.00
2018-08-04T14:48:02.898Z,28.00
2018-08-04T14:50:30.982Z,28.00
2018-08-04T14:52:59.032Z,28.00
2018-08-04T14:55:27.130Z,28.00
2018-08-04T14:57:55.178Z,28.00
2018-08-04T15:00:23.250Z,28.00
2018-08-04T15:02:51.315Z,28.00
2018-08-04T15:05:19.380Z,28.00
2018-08-04T15:07:47.444Z,28.00
2018-08-04T15:10:15.532Z,28.00
2018-08-04T15:12:43.622Z,28.00
2018-08-04T15:15:11.707Z,28.00
2018-08-04T15:17:39.835Z,28.00
2018-08-04T15:20:08.386Z,28.00
2018-08-04T15:22:36.491Z,28.00
2018-08-04T15:25:04.971Z,28.00
2018-08-04T15:27:33.899Z,28.00
2018-08-04T15:30:02.159Z,28.00
2018-08-04T15:32:30.240Z,28.00
2018-08-04T15:34:58.636Z,28.00
2018-08-04T15:37:26.822Z,28.00
2018-08-04T15:39:55.202Z,28.10
2018-08-04T15:42:23.258Z,28.10
2018-08-04T15:44:51.319Z,28.00
2018-08-04T15:47:19.395Z,28.00
2018-08-04T15:49:47.478Z,28.00
2018-08-04T15:52:15.546Z,28.00
2018-08-04T15:54:43.615Z,28.10
2018-08-04T15:57:11.966Z,28.00
2018-08-04T15:59:40.047Z,28.10
2018-08-04T16:02:08.326Z,28.10
2018-08-04T16:04:36.405Z,28.00
2018-08-04T16:07:04.494Z,28.00
2018-08-04T16:09:32.559Z,28.00
2018-08-04T16:12:00.650Z,28.00
2018-08-04T16:14:28.742Z,28.00
2018-08-04T16:16:56.790Z,28.00
2018-08-04T16:19:25.118Z,28.10
2018-08-04T16:21:53.180Z,28.00
2018-08-04T16:24:21.269Z,28.10
2018-08-04T16:26:49.323Z,28.00
2018-08-04T16:29:17.462Z,28.00
2018-08-04T16:31:45.538Z,28.00
2018-08-04T16:34:13.610Z,28.00
2018-08-04T16:36:41.690Z,28.00
2018-08-04T16:39:10.459Z,28.10
2018-08-04T16:41:38.597Z,28.00
2018-08-04T16:44:06.857Z,28.00
2018-08-04T16:46:35.153Z,28.10
2018-08-04T16:49:03.208Z,28.10
2018-08-04T16:51:31.298Z,28.00
2018-08-04T16:53:59.544Z,28.00
2018-08-04T16:56:27.618Z,28.10
2018-08-04T16:58:55.686Z,28.00
2018-08-04T17:01:23.755Z,28.00
2018-08-04T17:03:51.820Z,28.10
2018-08-04T17:06:19.889Z,28.00
2018-08-04T17:08:48.003Z,28.00
2018-08-04T17:11:16.071Z,28.10
2018-08-04T17:13:44.151Z,28.00
2018-08-04T17:16:12.234Z,28.00
2018-08-04T17:18:40.311Z,28.00
2018-08-04T17:21:08.371Z,28.00
2018-08-04T17:23:36.690Z,28.00
2018-08-04T17:26:05.222Z,28.00
2018-08-04T17:28:33.613Z,28.00
2018-08-04T17:31:02.262Z,28.00
2018-08-04T17:33:30.322Z,28.00
2018-08-04T17:35:58.384Z,28.00
2018-08-04T17:38:26.458Z,28.00
2018-08-04T17:40:54.525Z,28.00
2018-08-04T17:43:22.645Z,28.00
2018-08-04T17:45:50.722Z,28.00
2018-08-04T17:48:18.779Z,28.00
2018-08-04T17:50:46.843Z,28.00
2018-08-04T17:53:14.895Z,28.00
2018-08-04T17:55:43.046Z,28.00
2018-08-04T17:58:11.102Z,28.00
2018-08-04T18:00:39.170Z,28.00
2018-08-04T18:03:07.264Z,28.00
2018-08-04T18:05:35.442Z,28.00
2018-08-04T18:08:03.500Z,28.00
2018-08-04T18:10:31.564Z,28.00
2018-08-04T18:12:59.755Z,28.00
2018-08-04T18:15:28.032Z,28.00
2018-08-04T18:17:56.099Z,28.00
2018-08-04T18:20:24.199Z,28.00
2018-08-04T18:22:52.243Z,28.00
2018-08-04T18:25:20.311Z,28.00
2018-08-04T18:27:48.403Z,28.00
2018-08-04T18:30:16.479Z,28.00
2018-08-04T18:32:44.570Z,28.00
2018-08-04T18:35:12.627Z,28.00
2018-08-04T18:37:40.755Z,28.00
2018-08-04T18:40:08.808Z,28.00
2018-08-04T18:42:36.870Z,28.00
2018-08-04T18:45:05.842Z,28.00
2018-08-04T18:47:34.176Z,28.00
2018-08-04T18:50:02.387Z,28.00
2018-08-04T18:52:30.450Z,28.00
2018-08-04T18:54:58.515Z,28.00
2018-08-04T18:57:26.599Z,28.00
2018-08-04T18:59:54.702Z,28.00
2018-08-04T19:02:22.905Z,28.00
2018-08-04T19:04:50.967Z,28.00
2018-08-04T19:07:19.323Z,28.00
2018-08-04T19:09:47.503Z,28.00
2018-08-04T19:12:15.605Z,28.00
2018-08-04T19:14:44.149Z,28.00
2018-08-04T19:17:12.226Z,28.00
2018-08-04T19:19:40.279Z,28.00
2018-08-04T19:22:08.434Z,28.00
2018-08-04T19:24:36.483Z,28.00
2018-08-04T19:27:04.682Z,28.00
2018-08-04T19:29:32.819Z,28.00
2018-08-04T19:32:01.111Z,28.00
2018-08-04T19:34:29.168Z,28.00
2018-08-04T19:36:57.227Z,28.00
2018-08-04T19:39:25.290Z,28.00
2018-08-04T19:41:53.401Z,28.00
2018-08-04T19:44:21.467Z,28.00
2018-08-04T19:46:49.530Z,28.00
2018-08-04T19:49:17.763Z,27.90
2018-08-04T19:51:45.862Z,27.90
2018-08-04T19:54:14.245Z,27.90
2018-08-04T19:56:42.335Z,27.90
2018-08-04T19:59:10.407Z,27.90
2018-08-04T20:01:38.463Z,27.90
2018-08-04T20:04:06.674Z,27.90
2018-08-04T20:06:34.730Z,27.90
2018-08-04T20:09:03.190Z,27.90
2018-08-04T20:11:31.270Z,27.90
2018-08-04T20:13:59.366Z,27.90
2018-08-04T20:16:27.422Z,27.90
2018-08-04T20:18:55.506Z,27.90
2018-08-04T20:21:23.568Z,27.90
2018-08-04T20:23:51.626Z,27.90
2018-08-04T20:26:19.839Z,27.90
2018-08-04T20:28:47.899Z,27.90
2018-08-04T20:31:15.963Z,27.90
2018-08-04T20:33:44.031Z,27.90
2018-08-04T20:36:12.091Z,27.90
2018-08-04T20:38:40.195Z,27.90
2018-08-04T20:41:08.257Z,27.90
2018-08-04T20:43:36.338Z,27.90
2018-08-04T20:46:04.715Z,27.90
2018-08-04T20:48:32.836Z,27.90
2018-08-04T20:51:00.907Z,27.90
2018-08-04T20:53:29.150Z,27.90
2018-08-04T20:55:57.204Z,27.90
2018-08-04T20:58:25.698Z,27.90
2018-08-04T21:01:05.173Z,27.90
2018-08-04T21:03:33.235Z,27.90
2018-08-04T21:06:01.309Z,27.90
2018-08-04T21:08:29.703Z,27.90
2018-08-04T21:10:57.766Z,27.90
2018-08-04T21:13:25.839Z,27.90
2018-08-04T21:15:53.906Z,27.90
2018-08-04T21:18:21.975Z,27.90
2018-08-04T21:20:50.294Z,27.90
2018-08-04T21:23:18.624Z,27.90
2018-08-04T21:25:46.683Z,27.90
2018-08-04T21:28:14.770Z,27.90
2018-08-04T21:30:42.822Z,27.90
2018-08-04T21:33:10.903Z,27.90
2018-08-04T21:35:39.247Z,27.90
2018-08-04T21:38:07.318Z,27.90
2018-08-04T21:40:35.394Z,27.90
2018-08-04T21:43:03.494Z,27.90
2018-08-04T21:45:31.588Z,27.90
2018-08-04T21:47:59.674Z,27.90
2018-08-04T21:50:27.745Z,27.90
2018-08-04T21:52:55.802Z,27.90
2018-08-04T21:55:23.926Z,27.90
2018-08-04T21:57:51.995Z,27.90
2018-08-04T22:00:20.073Z,27.90
2018-08-04T22:03:00.562Z,27.90
2018-08-04T22:05:29.278Z,27.90
2018-08-04T22:08:10.014Z,27.90
2018-08-04T22:10:38.103Z,27.90
2018-08-04T22:13:06.244Z,27.90
2018-08-04T22:15:34.286Z,27.80
2018-08-04T22:18:02.414Z,27.90
2018-08-04T22:20:30.838Z,27.80
2018-08-04T22:22:58.958Z,27.90
2018-08-04T22:25:29.306Z,27.90
2018-08-04T22:27:58.006Z,27.90
2018-08-04T22:30:26.498Z,27.90
2018-08-04T22:32:54.850Z,27.90
2018-08-04T22:35:23.331Z,27.90
2018-08-04T22:37:51.972Z,27.90
2018-08-04T22:40:20.802Z,27.90
2018-08-04T22:42:48.886Z,27.90
2018-08-04T22:46:23.307Z,27.90
2018-08-04T22:48:52.599Z,27.90
2018-08-04T22:51:26.119Z,27.90
2018-08-04T22:53:54.245Z,27.80
2018-08-04T22:56:22.302Z,27.80
2018-08-04T22:58:50.706Z,27.80
2018-08-04T23:01:18.762Z,27.80
2018-08-04T23:06:14.935Z,27.90
2018-08-04T23:08:43.002Z,27.90
2018-08-04T23:11:11.112Z,27.90
2018-08-04T23:13:39.166Z,27.90
2018-08-04T23:16:07.255Z,27.90
2018-08-04T23:18:35.318Z,27.90
2018-08-04T23:21:03.391Z,27.90
2018-08-04T23:23:31.452Z,27.90
2018-08-04T23:25:59.582Z,27.90
2018-08-04T23:28:27.678Z,27.90
2018-08-04T23:30:55.746Z,27.90
2018-08-04T23:33:23.806Z,27.90
2018-08-04T23:35:52.003Z,27.90
2018-08-04T23:38:20.359Z,27.80
2018-08-04T23:40:48.450Z,27.90
2018-08-04T23:43:16.511Z,27.90
2018-08-04T23:45:44.585Z,27.90
2018-08-04T23:48:12.678Z,27.90
2018-08-04T23:50:40.774Z,27.90
2018-08-04T23:53:08.830Z,27.90
2018-08-04T23:55:36.924Z,27.90
2018-08-04T23:58:05.534Z,27.90
